< Typhoon 201209 2012 Season Typhoon 201211 >
Typhoon 201210 (DAMREY)
General InformationTrack Information on Google MapsDetailed Wind InformationAccess Analytics MapList of All Images || NewsDisaster Info.WeblogTrackbackTyphoon FrontTwiphoonTyphoon Now!Typhoon ImaginationResourceGoogle EarthGE AnimationAtom FeedGeoJSON
Detalied Best Track (Time Zone = UTC)
Year Month Day Hour Lat. Long. Pressure (hPa) Wind (kt) Class Image Chart
2012 7 27 06 24.7 148.8 1008 0 2 Image Chart
2012 7 27 12 25.2 148.3 1008 0 2 Image Chart
2012 7 27 18 25.6 147.9 1008 0 2 Image Chart
2012 7 28 00 25.9 147.4 1008 0 2 Image Chart
2012 7 28 06 26.0 147.2 1006 0 2 Image Chart
2012 7 28 12 26.0 147.1 1002 35 3 Image Chart
2012 7 28 18 26.0 146.8 1000 35 3 Image Chart
2012 7 29 00 26.1 146.4 996 40 3 Image Chart
2012 7 29 06 25.9 146.0 996 40 3 Image Chart
2012 7 29 12 25.5 145.8 996 40 3 Image Chart
2012 7 29 18 25.4 145.5 996 40 3 Image Chart
2012 7 30 00 25.4 145.0 996 40 3 Image Chart
2012 7 30 06 25.4 144.7 992 40 3 Image Chart
2012 7 30 12 26.5 144.2 990 40 3 Image Chart
2012 7 30 15 27.1 143.5 985 45 3 Image Chart
2012 7 30 18 27.7 142.8 975 55 4 Image Chart
2012 7 30 21 28.0 141.7 980 50 4 Image Chart
2012 7 31 00 28.3 141.0 980 50 4 Image Chart
2012 7 31 06 28.6 138.9 980 50 4 Image Chart
2012 7 31 12 28.9 137.2 980 50 4 Image Chart
2012 7 31 18 29.3 135.1 980 50 4 Image Chart
2012 7 31 21 29.8 134.0 975 55 4 Image Chart
2012 8 1 00 30.0 132.7 975 55 4 Image Chart
2012 8 1 03 30.3 131.4 975 55 4 Image Chart
2012 8 1 06 30.4 130.5 975 55 4 Image Chart
2012 8 1 09 30.5 129.8 975 55 4 Image Chart
2012 8 1 12 30.8 128.7 975 55 4 Image Chart
2012 8 1 18 31.7 126.7 975 55 4 Image Chart
2012 8 2 00 32.8 124.3 970 65 5 Image Chart
2012 8 2 06 33.8 122.2 965 70 5 Image Chart
2012 8 2 12 34.4 120.4 970 65 5 Image Chart
2012 8 2 18 34.9 119.4 975 60 4 Image Chart
2012 8 3 00 35.6 118.2 992 45 3 Image Chart
2012 8 3 06 37.0 118.0 996 35 3 Image Chart
2012 8 3 12 37.6 118.2 1000 0 2 Image Chart
2012 8 3 18 38.8 118.9 1004 0 2 Image Chart
2012 8 4 00 39.6 119.5 1006 0 2 Image Chart
Japan Meteorological Agency Best Track Data | Correction Date : 2012-08-28
< Typhoon 201209 2012 Season Typhoon 201211 >

Help